Nearby METAR Reports

 

KIAD - Wash Dc/Dulles, Virginia, USA
Distance from station: NNW 8mi, 13km
Updated: Fri, 21-Jul-2017 5:52pm EDT
Overcast
Overcast
 Wind from SSE
Wind: SSE 3 mph , 6 km/h
Temperature: 90°F , 32°C
Heat Index: 97°F , 36°C
Dew Point: 72°F , 22°C
Humidity: 55%
Barometer: 29.87 inHg , 1011.5 hPa
Clouds: Overcast
Visibility: 10 miles , 16 km
Cloud details: Few Clouds 7000 ft
Mostly cloudy 11000 ft
Overcast 25000 ft
2017/07/21 21:52 KIAD 212152Z 16003KT 10SM FEW070 BKN110 OVC250 32/22 A2987 RMK AO2 SLP112 T03170217
KHEF - Manassas Muni, Virginia, USA
Distance from station: SW 9mi, 14km
Updated: Fri, 21-Jul-2017 5:56pm EDT
Clear
Clear
 Wind from SE
Wind: SE 6 mph , 9 km/h
Temperature: 91°F , 33°C
Heat Index: 102°F , 39°C
Dew Point: 75°F , 24°C
Humidity: 59%
Barometer: 29.87 inHg , 1011.5 hPa
Clouds: Clear
Visibility: 10 miles , 16 km
2017/07/21 21:56 KHEF 212156Z AUTO 13005KT 10SM CLR 33/24 A2987 RMK AO2 SLP121 T03280244 PNO $
KDAA - Fort Belvoir/Dav, Virginia, USA
Distance from station: ESE 15mi, 25km
Updated: Fri, 21-Jul-2017 5:58pm EDT
Clear
Clear
 Wind from ESE
Wind: ESE 5 mph , 7 km/h
Temperature: 93°F , 34°C
Heat Index: 103°F , 39°C
Dew Point: 73°F , 23°C
Humidity: 53%
Barometer: 29.87 inHg , 1011.5 hPa
Clouds: Clear
Visibility: 10 miles , 16 km
2017/07/21 21:58 KDAA 212158Z AUTO 12004KT 10SM CLR 34/23 A2987 RMK AO2 SLP118 T03380229
 
KJYO - Leesburg/Godfrey, Virginia, USA
Distance from station: NNW 19mi, 30km
Updated: Fri, 21-Jul-2017 6:15pm EDT
Clear
Clear
 Wind from calm
Wind: Calm
Temperature: 90°F , 32°C
Heat Index: 101°F , 38°C
Dew Point: 75°F , 24°C
Humidity: 63%
Barometer: 29.89 inHg , 1012.2 hPa
Clouds: Clear
Visibility: 10 miles , 16 km
2017/07/21 22:15 KJYO 212215Z AUTO 00000KT 10SM CLR 32/24 A2989 RMK AO2
KDCA - Washington/Natl, Washington D.c., USA
Distance from station: E 21mi, 34km
Updated: Fri, 21-Jul-2017 5:52pm EDT
Mostly cloudy
Mostly cloudy
 Wind from varies
Wind: varies 6 mph , 9 km/h
Temperature: 93°F , 34°C
Heat Index: 99°F , 37°C
Dew Point: 70°F , 21°C
Humidity: 47%
Barometer: 29.88 inHg , 1011.9 hPa
Clouds: Mostly cloudy
Visibility: 10 miles , 16 km
Cloud details: Few Clouds 5500 ft
Mostly cloudy 25000 ft
2017/07/21 21:52 KDCA 212152Z VRB05KT 10SM FEW055 BKN250 34/21 A2988 RMK AO2 SLP117 T03440211
KHWY - Warrenton, Virginia, USA
Distance from station: SW 23mi, 37km
Updated: Fri, 21-Jul-2017 6:15pm EDT
Clear
Clear
 Wind from calm
Wind: Calm
Temperature: 88°F , 31°C
Heat Index: 92°F , 33°C
Dew Point: 68°F , 20°C
Humidity: 52%
Barometer: 29.87 inHg , 1011.5 hPa
Clouds: Clear
Visibility: 10 miles , 16 km
2017/07/21 22:15 KHWY 212215Z AUTO 00000KT 10SM CLR 31/20 A2987 RMK AO2 T03130199
 
KNYG - Quantico Mcaf, Virginia, USA
Distance from station: SSE 23mi, 37km
Updated: Fri, 21-Jul-2017 5:56pm EDT
Clear
Clear
 Wind from SE
Wind: SE 7 mph , 11 km/h
Temperature: 93°F , 34°C
Heat Index: 105°F , 41°C
Dew Point: 75°F , 24°C
Humidity: 56%
Barometer: 29.87 inHg , 1011.5 hPa
Clouds: Clear
Visibility: 10 miles , 16 km
2017/07/21 21:56 KNYG 212156Z 13006KT 10SM CLR 34/24 A2987 RMK AO2 SLP115 T03390244
KGAI - Gaithersburg, Maryland, USA
Distance from station: NNE 28mi, 44km
Updated: Fri, 21-Jul-2017 5:56pm EDT
Clear
Clear
 Wind from W
Wind: W 5 mph , 7 km/h
Temperature: 90°F , 32°C
Heat Index: 99°F , 37°C
Dew Point: 73°F , 23°C
Humidity: 59%
Barometer: 29.91 inHg , 1012.9 hPa
Clouds: Clear
Visibility: 10 miles , 16 km
2017/07/21 21:56 KGAI 212156Z AUTO 26004KT 10SM CLR 32/23 A2991 RMK AO2 SLP145 T03170228
KCGS - College Park, Maryland, USA
Distance from station: ENE 29mi, 47km
Updated: Fri, 21-Jul-2017 6:08pm EDT
Clear
Clear
 Wind from W
Wind: W 3 mph , 6 km/h
Temperature: 93°F , 34°C
Heat Index: 99°F , 37°C
Dew Point: 70°F , 21°C
Humidity: 47%
Barometer: 29.86 inHg , 1011.2 hPa
Clouds: Clear
Visibility: 10 miles , 16 km
2017/07/21 22:08 KCGS 212208Z AUTO 28003KT 10SM CLR 34/21 A2986 RMK AO1 T03370210
 
KRMN - Stafford Regnl, Virginia, USA
Distance from station: S 29mi, 47km
Updated: Fri, 21-Jul-2017 6:15pm EDT
Partly cloudy
Partly cloudy
 Wind from ESE
Wind: ESE 7 mph , 11 km/h
Temperature: 90°F , 32°C
Heat Index: 99°F , 37°C
Dew Point: 73°F , 23°C
Humidity: 59%
Barometer: 29.90 inHg , 1012.5 hPa
Clouds: Partly cloudy
Visibility: 10 miles , 16 km
Cloud details: Partly cloudy 7000 ft
2017/07/21 22:15 KRMN 212215Z AUTO 11006KT 10SM SCT070 32/23 A2990 RMK AO2 T03240231
KADW - Andrews Afb, Maryland, USA
Distance from station: E 30mi, 48km
Updated: Fri, 21-Jul-2017 5:58pm EDT
Clear
Clear
 Wind from W
Wind: W 7 mph , 11 km/h
Temperature: 93°F , 34°C
Heat Index: 97°F , 36°C
Dew Point: 68°F , 20°C
Humidity: 44%
Barometer: 29.88 inHg , 1011.9 hPa
Clouds: Clear
Visibility: 10 miles , 16 km
2017/07/21 21:58 KADW 212158Z AUTO 28006KT 10SM CLR 34/20 A2988 RMK AO2 SLP122 T03390204
KCJR - Culpeper, Virginia, USA
Distance from station: SW 31mi, 50km
Updated: Fri, 21-Jul-2017 6:15pm EDT
Clear
Clear
 Wind from W
Wind: W 5 mph , 7 km/h
Temperature: 86°F , 30°C
Heat Index: 92°F , 33°C
Dew Point: 72°F , 22°C
Humidity: 62%
Barometer: 29.88 inHg , 1011.9 hPa
Clouds: Clear
Visibility: 10 miles , 16 km
2017/07/21 22:15 KCJR 212215Z AUTO 27004KT 10SM CLR 30/22 A2988 RMK AO2 T03000217
 
KEZF - Fredericksb/Shan, Virginia, USA
Distance from station: S 38mi, 61km
Updated: Fri, 21-Jul-2017 6:15pm EDT
Partly cloudy
Partly cloudy
 Wind from SSE
Wind: SSE 3 mph , 6 km/h
Temperature: 91°F , 33°C
Heat Index: 102°F , 39°C
Dew Point: 75°F , 24°C
Humidity: 59%
Barometer: 29.85 inHg , 1010.8 hPa
Clouds: Partly cloudy
Visibility: 10 miles , 16 km
Cloud details: Partly cloudy 7000 ft
Partly cloudy 9500 ft
Partly cloudy 11000 ft
2017/07/21 22:15 KEZF 212215Z AUTO 15003KT 10SM SCT070 SCT095 SCT110 33/24 A2985 RMK AO2 T03280244
KFME - Fort Meade, Maryland, USA
Distance from station: ENE 40mi, 64km
Updated: Fri, 21-Jul-2017 6:09pm EDT
Clear
Clear
 Wind from SSE
Wind: SSE 6 mph , 9 km/h
Temperature: 88°F , 31°C
Heat Index: 93°F , 34°C
Dew Point: 70°F , 21°C
Humidity: 55%
Barometer: 29.89 inHg , 1012.2 hPa
Clouds: Clear
Visibility: 10 miles , 16 km
2017/07/21 22:09 KFME 212209Z AUTO 15005KT 10SM CLR 31/21 A2989 RMK AO1
KFDK - Frederick, Maryland, USA
Distance from station: N 41mi, 67km
Updated: Fri, 21-Jul-2017 5:47pm EDT
Mostly cloudy
Mostly cloudy
 Wind from S
Wind: S 7 mph , 11 km/h
Temperature: 91°F , 33°C
Heat Index: 96°F , 36°C
Dew Point: 70°F , 21°C
Humidity: 49%
Barometer: 29.92 inHg , 1013.2 hPa
Clouds: Mostly cloudy
Visibility: 7 miles , 11 km
Cloud details: Mostly cloudy 4800 ft
2017/07/21 21:47 KFDK 212147Z 19006KT 7SM BKN048 33/21 A2992
 
KOKV - Winchester Rgnl, Virginia, USA
Distance from station: WNW 45mi, 72km
Updated: Fri, 21-Jul-2017 6:15pm EDT
Clear
Clear
 Wind from WSW
Wind: WSW 9 mph , 15 km/h
Temperature: 75°F , 24°C
Dew Point: 70°F , 21°C
Humidity: 83%
Barometer: 29.92 inHg , 1013.2 hPa
Clouds: Clear
Visibility: 10 miles , 16 km
2017/07/21 22:15 KOKV 212215Z AUTO 25008KT 10SM CLR 24/21 A2992 RMK AO2
KFRR - Front Royal, Virginia, USA
Distance from station: W 45mi, 73km
Updated: Fri, 21-Jul-2017 6:15pm EDT
Partly cloudy
Partly cloudy
 Wind from SSW
Wind: SSW 8 mph , 13 km/h
Temperature: 77°F , 25°C
Dew Point: 70°F , 21°C
Humidity: 79%
Barometer: 29.93 inHg , 1013.5 hPa
Clouds: Partly cloudy
Visibility: 10 miles , 16 km
Cloud details: Partly cloudy 4900 ft
Partly cloudy 7000 ft
Partly cloudy 9500 ft
2017/07/21 22:15 KFRR 212215Z AUTO 21007KT 10SM SCT049 SCT070 SCT095 25/21 A2993 RMK AO1
KBWI - Balto/Wash Intl, Maryland, USA
Distance from station: ENE 46mi, 75km
Updated: Fri, 21-Jul-2017 5:54pm EDT
Mostly cloudy
Mostly cloudy
 Wind from SSE
Wind: SSE 5 mph , 7 km/h
Temperature: 90°F , 32°C
Heat Index: 97°F , 36°C
Dew Point: 72°F , 22°C
Humidity: 55%
Barometer: 29.88 inHg , 1011.9 hPa
Clouds: Mostly cloudy
Visibility: 10 miles , 16 km
Cloud details: Partly cloudy 6000 ft
Partly cloudy 9500 ft
Mostly cloudy 20000 ft
2017/07/21 21:54 KBWI 212154Z 16004KT 10SM SCT060 SCT095 BKN200 32/22 A2988 RMK AO2 SLP115 T03220222
 
KMRB - Martinsburg, West Virginia, USA
Distance from station: NW 50mi, 81km
Updated: Fri, 21-Jul-2017 5:53pm EDT
Mostly cloudy
Mostly cloudy
 Wind from calm
Wind: Calm
Temperature: 79°F , 26°C
Dew Point: 75°F , 24°C
Humidity: 89%
Barometer: 29.90 inHg , 1012.5 hPa
Clouds: Mostly cloudy
Visibility: 8 miles , 13 km
Cloud details: Few Clouds 3500 ft
Few Clouds 7000 ft
Mostly cloudy 9500 ft
2017/07/21 21:53 KMRB 212153Z 00000KT 8SM FEW035 FEW070 BKN095 26/24 A2990 RMK AO2 RAE05B13E47 SLP119 P0013 T02610239
KNAK - Annapolis/Naval, Maryland, USA
Distance from station: ENE 52mi, 83km
Updated: Fri, 21-Jul-2017 5:54pm EDT
Clear
Clear
 Wind from S
Wind: S 9 mph , 15 km/h
Temperature: 88°F , 31°C
Heat Index: 96°F , 36°C
Dew Point: 73°F , 23°C
Humidity: 62%
Barometer: 29.88 inHg , 1011.9 hPa
Clouds: Clear
Visibility: 10 miles , 16 km
2017/07/21 21:54 KNAK 212154Z AUTO 17008KT 10SM CLR 31/23 A2988 RMK AO2 SLP120 T03110228
KOMH - Orange, Virginia, USA
Distance from station: SW 52mi, 84km
Updated: Fri, 21-Jul-2017 6:15pm EDT
Clear
Clear
 Wind from calm
Wind: Calm
Temperature: 84°F , 29°C
Heat Index: 88°F , 31°C
Dew Point: 70°F , 21°C
Humidity: 62%
Barometer: 29.88 inHg , 1011.9 hPa
Clouds: Clear
Visibility: 10 miles , 16 km
2017/07/21 22:15 KOMH 212215Z AUTO 00000KT 10SM CLR 29/21 A2988 RMK AO2